sensor_id;sensor_type;location;lat;lon;timestamp;pressure;altitude;pressure_sealevel;temperature;humidity
63399;BME280;49533;-34.520;150.798;2024-02-14T00:00:56;100175.59;;;25.36;58.36
63399;BME280;49533;-34.520;150.798;2024-02-14T00:03:32;100134.59;;;25.09;57.82
63399;BME280;49533;-34.520;150.798;2024-02-14T00:05:59;100241.41;;;25.77;58.46
63399;BME280;49533;-34.520;150.798;2024-02-14T00:08:26;100126.31;;;25.02;58.26
63399;BME280;49533;-34.520;150.798;2024-02-14T00:10:53;100243.38;;;25.80;58.09
63399;BME280;49533;-34.520;150.798;2024-02-14T00:13:20;100242.16;;;25.81;58.15
63399;BME280;49533;-34.520;150.798;2024-02-14T00:15:47;100245.31;;;25.83;58.21
63399;BME280;49533;-34.520;150.798;2024-02-14T00:18:15;100166.13;;;25.30;58.31
63399;BME280;49533;-34.520;150.798;2024-02-14T00:20:42;100254.81;;;25.89;58.22
63399;BME280;49533;-34.520;150.798;2024-02-14T00:23:09;100250.84;;;25.90;58.10
63399;BME280;49533;-34.520;150.798;2024-02-14T00:25:37;100251.19;;;25.92;58.22
63399;BME280;49533;-34.520;150.798;2024-02-14T00:28:05;100205.06;;;25.60;58.44
63399;BME280;49533;-34.520;150.798;2024-02-14T00:30:32;100255.94;;;25.95;58.06
63399;BME280;49533;-34.520;150.798;2024-02-14T00:33:00;100254.72;;;25.96;58.26
63399;BME280;49533;-34.520;150.798;2024-02-14T00:35:27;100263.44;;;25.98;58.24
63399;BME280;49533;-34.520;150.798;2024-02-14T00:37:57;100267.78;;;25.99;58.74
63399;BME280;49533;-34.520;150.798;2024-02-14T00:40:24;100277.72;;;26.00;58.54
63399;BME280;49533;-34.520;150.798;2024-02-14T00:42:51;100273.72;;;26.01;58.96
63399;BME280;49533;-34.520;150.798;2024-02-14T00:45:18;100285.00;;;25.91;59.28
63399;BME280;49533;-34.520;150.798;2024-02-14T00:47:46;100221.53;;;25.48;59.07
63399;BME280;49533;-34.520;150.798;2024-02-14T00:50:13;100305.13;;;26.02;59.28
63399;BME280;49533;-34.520;150.798;2024-02-14T00:52:40;100250.97;;;25.76;59.39
63399;BME280;49533;-34.520;150.798;2024-02-14T00:55:08;100307.41;;;26.11;59.67
63399;BME280;49533;-34.520;150.798;2024-02-14T00:57:35;100325.69;;;26.12;59.82
63399;BME280;49533;-34.520;150.798;2024-02-14T01:00:02;100323.75;;;26.09;59.67
63399;BME280;49533;-34.520;150.798;2024-02-14T01:02:30;100319.38;;;26.08;59.64
63399;BME280;49533;-34.520;150.798;2024-02-14T01:04:57;100232.72;;;25.44;59.23
63399;BME280;49533;-34.520;150.798;2024-02-14T01:07:24;100335.34;;;26.03;59.65
63399;BME280;49533;-34.520;150.798;2024-02-14T01:09:51;100320.66;;;26.03;59.65
63399;BME280;49533;-34.520;150.798;2024-02-14T01:12:18;100323.06;;;25.97;59.54
63399;BME280;49533;-34.520;150.798;2024-02-14T01:14:45;100334.66;;;25.96;59.26
63399;BME280;49533;-34.520;150.798;2024-02-14T01:17:12;100270.06;;;25.43;58.84
63399;BME280;49533;-34.520;150.798;2024-02-14T01:19:40;100289.75;;;25.59;59.20
63399;BME280;49533;-34.520;150.798;2024-02-14T01:22:07;100343.47;;;25.91;58.92
63399;BME280;49533;-34.520;150.798;2024-02-14T01:24:35;100257.38;;;25.42;58.72
63399;BME280;49533;-34.520;150.798;2024-02-14T01:27:02;100353.06;;;25.86;58.62
63399;BME280;49533;-34.520;150.798;2024-02-14T01:29:29;100327.03;;;25.66;58.25
63399;BME280;49533;-34.520;150.798;2024-02-14T01:31:57;100348.38;;;25.76;58.54
63399;BME280;49533;-34.520;150.798;2024-02-14T01:34:24;100294.69;;;25.45;58.04
63399;BME280;49533;-34.520;150.798;2024-02-14T01:36:51;100364.31;;;25.72;58.60
63399;BME280;49533;-34.520;150.798;2024-02-14T01:39:18;100343.38;;;25.60;58.35
63399;BME280;49533;-34.520;150.798;2024-02-14T01:41:46;100220.72;;;24.71;58.37
63399;BME280;49533;-34.520;150.798;2024-02-14T01:44:18;100356.78;;;25.69;58.02
63399;BME280;49533;-34.520;150.798;2024-02-14T01:46:47;100364.69;;;25.74;58.29
63399;BME280;49533;-34.520;150.798;2024-02-14T01:49:16;100322.50;;;25.45;58.51
63399;BME280;49533;-34.520;150.798;2024-02-14T01:51:44;100328.84;;;25.45;58.46
63399;BME280;49533;-34.520;150.798;2024-02-14T01:54:13;100378.91;;;25.83;58.49
63399;BME280;49533;-34.520;150.798;2024-02-14T01:56:42;100395.97;;;25.89;58.22
63399;BME280;49533;-34.520;150.798;2024-02-14T01:59:09;100324.44;;;25.48;58.07
63399;BME280;49533;-34.520;150.798;2024-02-14T02:01:36;100356.34;;;25.74;58.06
63399;BME280;49533;-34.520;150.798;2024-02-14T02:04:04;100389.53;;;25.95;58.22
63399;BME280;49533;-34.520;150.798;2024-02-14T02:06:32;100285.78;;;25.23;57.89
63399;BME280;49533;-34.520;150.798;2024-02-14T02:09:00;100367.44;;;25.77;57.97
63399;BME280;49533;-34.520;150.798;2024-02-14T02:11:27;100259.63;;;25.13;57.54
63399;BME280;49533;-34.520;150.798;2024-02-14T02:13:54;100399.78;;;26.02;57.60
63399;BME280;49533;-34.520;150.798;2024-02-14T02:16:22;100391.19;;;25.89;57.10
63399;BME280;49533;-34.520;150.798;2024-02-14T02:18:49;100408.91;;;26.02;57.04
63399;BME280;49533;-34.520;150.798;2024-02-14T02:21:16;100384.84;;;25.89;57.02
63399;BME280;49533;-34.520;150.798;2024-02-14T02:23:46;100379.31;;;25.85;57.08
63399;BME280;49533;-34.520;150.798;2024-02-14T02:26:13;100231.66;;;24.93;57.01
63399;BME280;49533;-34.520;150.798;2024-02-14T02:28:41;100400.94;;;26.05;56.75
63399;BME280;49533;-34.520;150.798;2024-02-14T02:31:08;100406.09;;;26.06;57.20
63399;BME280;49533;-34.520;150.798;2024-02-14T02:33:35;100359.56;;;25.69;56.76
63399;BME280;49533;-34.520;150.798;2024-02-14T02:36:03;100347.81;;;25.54;56.99
63399;BME280;49533;-34.520;150.798;2024-02-14T02:38:30;100423.19;;;26.08;56.74
63399;BME280;49533;-34.520;150.798;2024-02-14T02:40:57;100402.69;;;25.91;56.47
63399;BME280;49533;-34.520;150.798;2024-02-14T02:43:26;100412.53;;;25.99;56.54
63399;BME280;49533;-34.520;150.798;2024-02-14T02:45:54;100372.69;;;25.68;56.70
63399;BME280;49533;-34.520;150.798;2024-02-14T02:48:23;100413.44;;;25.89;56.72
63399;BME280;49533;-34.520;150.798;2024-02-14T02:50:51;100371.84;;;25.75;56.65
63399;BME280;49533;-34.520;150.798;2024-02-14T02:53:18;100438.69;;;26.09;56.33
63399;BME280;49533;-34.520;150.798;2024-02-14T02:55:46;100321.78;;;25.37;56.06
63399;BME280;49533;-34.520;150.798;2024-02-14T02:58:13;100388.13;;;25.76;55.79
63399;BME280;49533;-34.520;150.798;2024-02-14T03:00:41;100419.59;;;26.08;56.00
63399;BME280;49533;-34.520;150.798;2024-02-14T03:03:08;100400.75;;;25.88;56.29
63399;BME280;49533;-34.520;150.798;2024-02-14T03:05:37;100345.06;;;25.50;56.09
63399;BME280;49533;-34.520;150.798;2024-02-14T03:08:05;100376.72;;;25.64;56.19
63399;BME280;49533;-34.520;150.798;2024-02-14T03:10:33;100354.91;;;25.58;55.77
63399;BME280;49533;-34.520;150.798;2024-02-14T03:13:01;100437.13;;;26.08;56.12
63399;BME280;49533;-34.520;150.798;2024-02-14T03:15:28;100388.22;;;25.66;56.06
63399;BME280;49533;-34.520;150.798;2024-02-14T03:17:55;100446.66;;;26.07;55.75
63399;BME280;49533;-34.520;150.798;2024-02-14T03:20:22;100456.22;;;26.06;55.50
63399;BME280;49533;-34.520;150.798;2024-02-14T03:22:49;100422.22;;;25.84;55.66
63399;BME280;49533;-34.520;150.798;2024-02-14T03:25:18;100456.25;;;26.02;55.83
63399;BME280;49533;-34.520;150.798;2024-02-14T03:27:46;100460.25;;;26.01;55.82
63399;BME280;49533;-34.520;150.798;2024-02-14T03:30:19;100453.09;;;26.00;55.74
63399;BME280;49533;-34.520;150.798;2024-02-14T03:32:48;100449.19;;;25.94;55.83
63399;BME280;49533;-34.520;150.798;2024-02-14T03:35:15;100459.91;;;25.96;55.51
63399;BME280;49533;-34.520;150.798;2024-02-14T03:37:45;100367.47;;;25.36;55.53
63399;BME280;49533;-34.520;150.798;2024-02-14T03:40:15;100401.03;;;25.56;55.64
63399;BME280;49533;-34.520;150.798;2024-02-14T03:42:42;100461.94;;;25.92;55.45
63399;BME280;49533;-34.520;150.798;2024-02-14T03:45:10;100451.56;;;25.92;55.56
63399;BME280;49533;-34.520;150.798;2024-02-14T03:47:37;100364.78;;;25.29;55.24
63399;BME280;49533;-34.520;150.798;2024-02-14T03:50:08;100392.31;;;25.54;54.97
63399;BME280;49533;-34.520;150.798;2024-02-14T03:52:36;100383.34;;;25.39;55.41
63399;BME280;49533;-34.520;150.798;2024-02-14T03:55:04;100463.16;;;25.91;55.17
63399;BME280;49533;-34.520;150.798;2024-02-14T03:57:32;100457.97;;;25.89;55.43
63399;BME280;49533;-34.520;150.798;2024-02-14T04:00:01;100382.19;;;25.33;55.01
63399;BME280;49533;-34.520;150.798;2024-02-14T04:02:29;100348.66;;;25.06;55.17
63399;BME280;49533;-34.520;150.798;2024-02-14T04:04:56;100441.09;;;25.66;54.98
63399;BME280;49533;-34.520;150.798;2024-02-14T04:07:23;100420.13;;;25.54;54.83
63399;BME280;49533;-34.520;150.798;2024-02-14T04:09:50;100359.59;;;24.79;54.90
63399;BME280;49533;-34.520;150.798;2024-02-14T04:12:17;100457.22;;;25.81;55.07
63399;BME280;49533;-34.520;150.798;2024-02-14T04:14:44;100430.00;;;25.62;54.62
63399;BME280;49533;-34.520;150.798;2024-02-14T04:17:11;100382.25;;;25.29;54.87
63399;BME280;49533;-34.520;150.798;2024-02-14T04:19:40;100440.59;;;25.78;54.84
63399;BME280;49533;-34.520;150.798;2024-02-14T04:22:07;100452.91;;;25.77;54.56
63399;BME280;49533;-34.520;150.798;2024-02-14T04:24:35;100463.63;;;25.78;54.70
63399;BME280;49533;-34.520;150.798;2024-02-14T04:27:02;100409.13;;;25.43;54.61
63399;BME280;49533;-34.520;150.798;2024-02-14T04:29:30;100431.97;;;25.65;54.94
63399;BME280;49533;-34.520;150.798;2024-02-14T04:32:02;100446.97;;;25.75;54.63
63399;BME280;49533;-34.520;150.798;2024-02-14T04:34:30;100448.16;;;25.74;54.56
63399;BME280;49533;-34.520;150.798;2024-02-14T04:36:57;100283.94;;;24.60;54.51
63399;BME280;49533;-34.520;150.798;2024-02-14T04:39:24;100458.91;;;25.72;54.48
63399;BME280;49533;-34.520;150.798;2024-02-14T04:41:51;100459.28;;;25.74;54.69
63399;BME280;49533;-34.520;150.798;2024-02-14T04:44:20;100417.59;;;25.29;54.74
63399;BME280;49533;-34.520;150.798;2024-02-14T04:46:47;100379.97;;;25.17;54.61
63399;BME280;49533;-34.520;150.798;2024-02-14T04:49:14;100418.72;;;25.35;54.18
63399;BME280;49533;-34.520;150.798;2024-02-14T04:51:42;100409.31;;;25.22;54.27
63399;BME280;49533;-34.520;150.798;2024-02-14T04:54:09;100397.81;;;25.20;54.67
63399;BME280;49533;-34.520;150.798;2024-02-14T04:56:36;100413.59;;;25.30;54.18
63399;BME280;49533;-34.520;150.798;2024-02-14T04:59:03;100471.31;;;25.64;54.57
63399;BME280;49533;-34.520;150.798;2024-02-14T05:01:31;100404.94;;;25.21;54.73
63399;BME280;49533;-34.520;150.798;2024-02-14T05:03:58;100468.97;;;25.58;54.20
63399;BME280;49533;-34.520;150.798;2024-02-14T05:06:25;100501.19;;;25.59;54.67
63399;BME280;49533;-34.520;150.798;2024-02-14T05:08:52;100452.97;;;25.25;54.62
63399;BME280;49533;-34.520;150.798;2024-02-14T05:11:20;100446.09;;;25.40;54.54
63399;BME280;49533;-34.520;150.798;2024-02-14T05:13:50;100472.97;;;25.57;54.66
63399;BME280;49533;-34.520;150.798;2024-02-14T05:16:27;100397.53;;;25.00;54.43
63399;BME280;49533;-34.520;150.798;2024-02-14T05:18:54;100487.31;;;25.52;54.48
63399;BME280;49533;-34.520;150.798;2024-02-14T05:21:21;100492.59;;;25.40;54.77
63399;BME280;49533;-34.520;150.798;2024-02-14T05:23:48;100440.53;;;24.84;55.12
63399;BME280;49533;-34.520;150.798;2024-02-14T05:26:16;100486.38;;;25.17;55.15
63399;BME280;49533;-34.520;150.798;2024-02-14T05:28:44;100440.09;;;24.89;55.00
63399;BME280;49533;-34.520;150.798;2024-02-14T05:31:11;100430.19;;;24.85;55.04
63399;BME280;49533;-34.520;150.798;2024-02-14T05:33:38;100493.47;;;25.26;54.95
63399;BME280;49533;-34.520;150.798;2024-02-14T05:36:05;100475.28;;;25.10;55.28
63399;BME280;49533;-34.520;150.798;2024-02-14T05:38:33;100444.81;;;24.92;55.22
63399;BME280;49533;-34.520;150.798;2024-02-14T05:41:00;100448.44;;;24.89;54.78
63399;BME280;49533;-34.520;150.798;2024-02-14T05:43:27;100439.38;;;24.78;55.18
63399;BME280;49533;-34.520;150.798;2024-02-14T05:45:54;100529.25;;;25.24;54.56
63399;BME280;49533;-34.520;150.798;2024-02-14T05:48:22;100538.38;;;25.21;54.38
63399;BME280;49533;-34.520;150.798;2024-02-14T05:50:49;100515.13;;;24.93;53.86
63399;BME280;49533;-34.520;150.798;2024-02-14T05:53:16;100453.41;;;24.39;54.23
63399;BME280;49533;-34.520;150.798;2024-02-14T05:55:43;100531.88;;;24.71;54.20
63399;BME280;49533;-34.520;150.798;2024-02-14T05:58:10;100478.44;;;24.35;54.59
63399;BME280;49533;-34.520;150.798;2024-02-14T06:00:38;100547.03;;;24.38;55.17
63399;BME280;49533;-34.520;150.798;2024-02-14T06:03:06;100561.75;;;24.24;55.41
63399;BME280;49533;-34.520;150.798;2024-02-14T06:05:33;100531.66;;;24.05;55.82
63399;BME280;49533;-34.520;150.798;2024-02-14T06:08:00;100504.31;;;23.75;55.72
63399;BME280;49533;-34.520;150.798;2024-02-14T06:10:29;100579.63;;;24.05;55.85
63399;BME280;49533;-34.520;150.798;2024-02-14T06:12:56;100549.53;;;23.86;55.86
63399;BME280;49533;-34.520;150.798;2024-02-14T06:15:23;100513.81;;;23.56;56.27
63399;BME280;49533;-34.520;150.798;2024-02-14T06:17:50;100541.56;;;23.63;56.48
63399;BME280;49533;-34.520;150.798;2024-02-14T06:20:17;100598.25;;;23.76;56.58
63399;BME280;49533;-34.520;150.798;2024-02-14T06:22:44;100532.81;;;23.32;56.81
63399;BME280;49533;-34.520;150.798;2024-02-14T06:25:12;100578.78;;;23.48;57.01
63399;BME280;49533;-34.520;150.798;2024-02-14T06:27:39;100489.91;;;22.79;57.03
63399;BME280;49533;-34.520;150.798;2024-02-14T06:30:06;100453.81;;;22.51;56.99
63399;BME280;49533;-34.520;150.798;2024-02-14T06:32:34;100563.69;;;23.20;56.92
63399;BME280;49533;-34.520;150.798;2024-02-14T06:35:03;100538.63;;;22.91;57.19
63399;BME280;49533;-34.520;150.798;2024-02-14T06:37:30;100530.28;;;22.88;57.17
63399;BME280;49533;-34.520;150.798;2024-02-14T06:43:52;100633.41;;;23.29;57.66
63399;BME280;49533;-34.520;150.798;2024-02-14T06:46:22;100642.47;;;23.26;57.87
63399;BME280;49533;-34.520;150.798;2024-02-14T06:48:49;100653.19;;;23.24;58.18
63399;BME280;49533;-34.520;150.798;2024-02-14T06:51:16;100644.84;;;23.20;58.50
63399;BME280;49533;-34.520;150.798;2024-02-14T06:53:44;100641.28;;;23.16;59.49
63399;BME280;49533;-34.520;150.798;2024-02-14T06:56:11;100530.47;;;22.36;59.33
63399;BME280;49533;-34.520;150.798;2024-02-14T06:58:38;100609.47;;;22.92;59.31
63399;BME280;49533;-34.520;150.798;2024-02-14T07:01:05;100666.16;;;23.06;59.14
63399;BME280;49533;-34.520;150.798;2024-02-14T07:03:33;100613.28;;;22.63;59.20
63399;BME280;49533;-34.520;150.798;2024-02-14T07:06:00;100583.06;;;22.32;59.03
63399;BME280;49533;-34.520;150.798;2024-02-14T07:08:27;100578.41;;;22.54;58.97
63399;BME280;49533;-34.520;150.798;2024-02-14T07:10:55;100478.91;;;22.10;58.66
63399;BME280;49533;-34.520;150.798;2024-02-14T07:13:22;100571.81;;;22.73;58.20
63399;BME280;49533;-34.520;150.798;2024-02-14T07:15:49;100663.16;;;23.43;57.81
63399;BME280;49533;-34.520;150.798;2024-02-14T07:18:17;100667.53;;;23.51;57.56
63399;BME280;49533;-34.520;150.798;2024-02-14T07:20:44;100642.94;;;23.42;57.54
63399;BME280;49533;-34.520;150.798;2024-02-14T07:23:11;100683.41;;;23.65;57.18
63399;BME280;49533;-34.520;150.798;2024-02-14T07:25:38;100605.25;;;23.16;56.98
63399;BME280;49533;-34.520;150.798;2024-02-14T07:28:05;100694.16;;;23.74;57.16
63399;BME280;49533;-34.520;150.798;2024-02-14T07:30:32;100588.19;;;23.07;56.71
63399;BME280;49533;-34.520;150.798;2024-02-14T07:32:59;100665.16;;;23.50;56.83
63399;BME280;49533;-34.520;150.798;2024-02-14T07:35:27;100702.09;;;23.82;56.49
63399;BME280;49533;-34.520;150.798;2024-02-14T07:37:55;100660.41;;;23.50;56.39
63399;BME280;49533;-34.520;150.798;2024-02-14T07:40:23;100622.31;;;23.29;56.72
63399;BME280;49533;-34.520;150.798;2024-02-14T07:42:50;100561.59;;;22.88;56.47
63399;BME280;49533;-34.520;150.798;2024-02-14T07:45:17;100619.13;;;23.20;56.38
63399;BME280;49533;-34.520;150.798;2024-02-14T07:47:44;100716.81;;;23.94;56.16
63399;BME280;49533;-34.520;150.798;2024-02-14T07:50:12;100678.66;;;23.65;56.14
63399;BME280;49533;-34.520;150.798;2024-02-14T07:52:42;100692.91;;;23.64;55.99
63399;BME280;49533;-34.520;150.798;2024-02-14T07:55:12;100696.94;;;23.77;55.86
63399;BME280;49533;-34.520;150.798;2024-02-14T07:57:40;100666.72;;;23.51;56.03
63399;BME280;49533;-34.520;150.798;2024-02-14T08:00:08;100737.00;;;23.87;55.94
63399;BME280;49533;-34.520;150.798;2024-02-14T08:02:36;100713.53;;;23.66;56.03
63399;BME280;49533;-34.520;150.798;2024-02-14T08:05:04;100753.63;;;23.80;55.82
63399;BME280;49533;-34.520;150.798;2024-02-14T08:07:31;100735.38;;;23.79;55.68
63399;BME280;49533;-34.520;150.798;2024-02-14T08:09:58;100633.31;;;23.08;55.71
63399;BME280;49533;-34.520;150.798;2024-02-14T08:12:25;100689.72;;;23.48;55.83
63399;BME280;49533;-34.520;150.798;2024-02-14T08:14:52;100671.47;;;23.39;55.69
63399;BME280;49533;-34.520;150.798;2024-02-14T08:17:19;100740.94;;;23.79;56.00
63399;BME280;49533;-34.520;150.798;2024-02-14T08:19:47;100726.59;;;23.66;55.85
63399;BME280;49533;-34.520;150.798;2024-02-14T08:22:14;100661.50;;;23.24;55.54
63399;BME280;49533;-34.520;150.798;2024-02-14T08:24:41;100756.38;;;23.80;55.38
63399;BME280;49533;-34.520;150.798;2024-02-14T08:27:08;100749.19;;;23.68;55.54
63399;BME280;49533;-34.520;150.798;2024-02-14T08:29:35;100759.53;;;23.75;55.55
63399;BME280;49533;-34.520;150.798;2024-02-14T08:32:03;100696.69;;;23.09;55.52
63399;BME280;49533;-34.520;150.798;2024-02-14T08:34:31;100764.34;;;23.78;55.61
63399;BME280;49533;-34.520;150.798;2024-02-14T08:36:58;100738.06;;;23.57;55.56
63399;BME280;49533;-34.520;150.798;2024-02-14T08:39:25;100795.66;;;23.93;55.59
63399;BME280;49533;-34.520;150.798;2024-02-14T08:41:52;100704.69;;;23.32;55.56
63399;BME280;49533;-34.520;150.798;2024-02-14T08:44:19;100776.91;;;23.64;55.29
63399;BME280;49533;-34.520;150.798;2024-02-14T08:46:47;100802.00;;;23.90;55.59
63399;BME280;49533;-34.520;150.798;2024-02-14T08:49:15;100697.88;;;23.12;55.44
63399;BME280;49533;-34.520;150.798;2024-02-14T08:51:42;100811.13;;;23.86;55.64
63399;BME280;49533;-34.520;150.798;2024-02-14T08:54:12;100811.91;;;23.87;55.41
63399;BME280;49533;-34.520;150.798;2024-02-14T08:56:40;100807.16;;;23.87;55.55
63399;BME280;49533;-34.520;150.798;2024-02-14T08:59:07;100778.53;;;23.65;55.50
63399;BME280;49533;-34.520;150.798;2024-02-14T09:01:34;100762.22;;;23.53;55.61
63399;BME280;49533;-34.520;150.798;2024-02-14T09:04:02;100810.34;;;23.86;55.52
63399;BME280;49533;-34.520;150.798;2024-02-14T09:06:29;100708.13;;;23.08;55.70
63399;BME280;49533;-34.520;150.798;2024-02-14T09:08:58;100765.78;;;23.50;55.38
63399;BME280;49533;-34.520;150.798;2024-02-14T09:11:25;100829.34;;;23.80;55.47
63399;BME280;49533;-34.520;150.798;2024-02-14T09:13:52;100777.25;;;23.45;55.47
63399;BME280;49533;-34.520;150.798;2024-02-14T09:16:22;100786.72;;;23.40;55.44
63399;BME280;49533;-34.520;150.798;2024-02-14T09:18:50;100841.59;;;23.79;55.52
63399;BME280;49533;-34.520;150.798;2024-02-14T09:21:17;100751.59;;;22.96;55.57
63399;BME280;49533;-34.520;150.798;2024-02-14T09:23:49;100857.84;;;23.77;55.78
63399;BME280;49533;-34.520;150.798;2024-02-14T09:26:16;100861.03;;;23.76;55.57
63399;BME280;49533;-34.520;150.798;2024-02-14T09:28:43;100757.22;;;23.04;55.63
63399;BME280;49533;-34.520;150.798;2024-02-14T09:31:10;100818.03;;;23.44;55.56
63399;BME280;49533;-34.520;150.798;2024-02-14T09:33:38;100859.41;;;23.75;55.39
63399;BME280;49533;-34.520;150.798;2024-02-14T09:36:06;100833.13;;;23.51;55.66
63399;BME280;49533;-34.520;150.798;2024-02-14T09:38:33;100874.84;;;23.72;55.61
63399;BME280;49533;-34.520;150.798;2024-02-14T09:41:17;100884.78;;;23.73;55.80
63399;BME280;49533;-34.520;150.798;2024-02-14T09:43:49;100790.91;;;23.13;55.55
63399;BME280;49533;-34.520;150.798;2024-02-14T09:46:16;100891.09;;;23.70;55.68
63399;BME280;49533;-34.520;150.798;2024-02-14T09:48:46;100718.44;;;22.52;55.21
63399;BME280;49533;-34.520;150.798;2024-02-14T09:51:14;100886.59;;;23.48;55.50
63399;BME280;49533;-34.520;150.798;2024-02-14T09:53:41;100800.34;;;23.01;55.52
63399;BME280;49533;-34.520;150.798;2024-02-14T09:56:10;100776.34;;;22.75;55.25
63399;BME280;49533;-34.520;150.798;2024-02-14T09:58:40;100921.97;;;23.65;55.66
63399;BME280;49533;-34.520;150.798;2024-02-14T10:01:08;100925.13;;;23.63;55.44
63399;BME280;49533;-34.520;150.798;2024-02-14T10:03:35;100932.66;;;23.63;55.38
63399;BME280;49533;-34.520;150.798;2024-02-14T10:06:03;100940.56;;;23.61;55.29
63399;BME280;49533;-34.520;150.798;2024-02-14T10:08:30;100893.09;;;23.18;55.50
63399;BME280;49533;-34.520;150.798;2024-02-14T10:10:58;100952.44;;;23.58;55.58
63399;BME280;49533;-34.520;150.798;2024-02-14T10:13:30;100926.53;;;23.39;55.43
63399;BME280;49533;-34.520;150.798;2024-02-14T10:15:58;100941.28;;;23.54;55.71
63399;BME280;49533;-34.520;150.798;2024-02-14T10:18:25;100938.50;;;23.54;55.42
63399;BME280;49533;-34.520;150.798;2024-02-14T10:20:56;100942.09;;;23.55;55.61
63399;BME280;49533;-34.520;150.798;2024-02-14T10:23:23;100852.91;;;22.94;55.38
63399;BME280;49533;-34.520;150.798;2024-02-14T10:25:53;100932.09;;;23.39;55.49
63399;BME280;49533;-34.520;150.798;2024-02-14T10:28:21;100960.69;;;23.51;55.41
63399;BME280;49533;-34.520;150.798;2024-02-14T10:30:49;100955.06;;;23.40;55.32
63399;BME280;49533;-34.520;150.798;2024-02-14T10:33:16;100918.81;;;23.15;55.33
63399;BME280;49533;-34.520;150.798;2024-02-14T10:35:45;100936.75;;;23.28;55.40
63399;BME280;49533;-34.520;150.798;2024-02-14T10:38:16;100860.63;;;22.70;55.48
63399;BME280;49533;-34.520;150.798;2024-02-14T10:40:47;100969.38;;;23.46;55.54
63399;BME280;49533;-34.520;150.798;2024-02-14T10:43:15;100897.25;;;22.94;55.20
63399;BME280;49533;-34.520;150.798;2024-02-14T10:45:43;100899.97;;;22.90;55.27
63399;BME280;49533;-34.520;150.798;2024-02-14T10:48:14;100987.16;;;23.41;55.43
63399;BME280;49533;-34.520;150.798;2024-02-14T10:50:42;100983.97;;;23.39;55.46
63399;BME280;49533;-34.520;150.798;2024-02-14T10:53:14;100959.63;;;23.18;55.55
63399;BME280;49533;-34.520;150.798;2024-02-14T10:55:45;100865.22;;;22.55;55.40
63399;BME280;49533;-34.520;150.798;2024-02-14T10:58:13;101001.75;;;23.34;55.51
63399;BME280;49533;-34.520;150.798;2024-02-14T11:00:41;101013.66;;;23.35;55.16
63399;BME280;49533;-34.520;150.798;2024-02-14T11:03:09;100934.41;;;22.89;55.86
63399;BME280;49533;-34.520;150.798;2024-02-14T11:05:48;100908.50;;;22.71;55.73
63399;BME280;49533;-34.520;150.798;2024-02-14T11:08:19;101001.34;;;23.32;55.50
63399;BME280;49533;-34.520;150.798;2024-02-14T11:10:56;100922.78;;;22.76;55.79
63399;BME280;49533;-34.520;150.798;2024-02-14T11:13:30;100970.63;;;23.07;55.87
63399;BME280;49533;-34.520;150.798;2024-02-14T11:16:01;100841.94;;;22.23;55.72
63399;BME280;49533;-34.520;150.798;2024-02-14T11:18:29;100974.53;;;23.03;55.61
63399;BME280;49533;-34.520;150.798;2024-02-14T11:20:56;100986.47;;;23.07;55.58
63399;BME280;49533;-34.520;150.798;2024-02-14T11:23:29;101002.41;;;23.20;55.83
63399;BME280;49533;-34.520;150.798;2024-02-14T11:26:05;100984.41;;;23.00;55.78
63399;BME280;49533;-34.520;150.798;2024-02-14T11:28:37;101011.91;;;23.19;55.82
63399;BME280;49533;-34.520;150.798;2024-02-14T11:31:07;101005.59;;;23.19;55.69
63399;BME280;49533;-34.520;150.798;2024-02-14T11:33:36;101010.28;;;23.15;55.93
63399;BME280;49533;-34.520;150.798;2024-02-14T11:36:09;100954.06;;;22.77;56.02
63399;BME280;49533;-34.520;150.798;2024-02-14T11:38:42;100919.34;;;22.49;55.92
63399;BME280;49533;-34.520;150.798;2024-02-14T11:41:11;100922.88;;;22.46;55.66
63399;BME280;49533;-34.520;150.798;2024-02-14T11:43:38;100970.31;;;22.78;56.06
63399;BME280;49533;-34.520;150.798;2024-02-14T11:46:05;100931.19;;;22.46;55.71
63399;BME280;49533;-34.520;150.798;2024-02-14T11:48:33;100985.13;;;22.93;55.90
63399;BME280;49533;-34.520;150.798;2024-02-14T11:51:00;101001.47;;;23.06;55.81
63399;BME280;49533;-34.520;150.798;2024-02-14T11:53:27;100945.63;;;22.66;55.97
63399;BME280;49533;-34.520;150.798;2024-02-14T11:55:55;100946.00;;;22.65;56.04
63399;BME280;49533;-34.520;150.798;2024-02-14T11:58:23;100960.44;;;22.81;55.97
63399;BME280;49533;-34.520;150.798;2024-02-14T12:00:50;100997.13;;;23.05;55.93
63399;BME280;49533;-34.520;150.798;2024-02-14T12:03:20;100909.78;;;22.43;55.95
63399;BME280;49533;-34.520;150.798;2024-02-14T12:05:49;100958.34;;;22.71;56.00
63399;BME280;49533;-34.520;150.798;2024-02-14T12:08:17;100864.31;;;22.10;55.79
63399;BME280;49533;-34.520;150.798;2024-02-14T12:10:45;100910.56;;;22.40;55.83
63399;BME280;49533;-34.520;150.798;2024-02-14T12:13:21;100935.91;;;22.46;55.97
63399;BME280;49533;-34.520;150.798;2024-02-14T12:15:50;101010.91;;;22.97;56.06
63399;BME280;49533;-34.520;150.798;2024-02-14T12:18:18;100918.00;;;22.36;56.30
63399;BME280;49533;-34.520;150.798;2024-02-14T12:20:46;100989.63;;;22.71;56.19
63399;BME280;49533;-34.520;150.798;2024-02-14T12:23:16;101004.50;;;22.93;56.37
63399;BME280;49533;-34.520;150.798;2024-02-14T12:25:48;101000.56;;;22.94;56.40
63399;BME280;49533;-34.520;150.798;2024-02-14T12:28:19;100806.44;;;21.64;56.33